sensor_id;sensor_type;location;lat;lon;timestamp;P1;durP1;ratioP1;P2;durP2;ratioP2
20639;SDS011;10479;53.524;9.846;2022-07-06T00:01:35;7.05;;;1.50;;
20639;SDS011;10479;53.524;9.846;2022-07-06T00:04:03;5.53;;;1.60;;
20639;SDS011;10479;53.524;9.846;2022-07-06T00:06:29;7.82;;;1.95;;
20639;SDS011;10479;53.524;9.846;2022-07-06T00:08:55;5.05;;;1.70;;
20639;SDS011;10479;53.524;9.846;2022-07-06T00:11:20;8.55;;;1.63;;
20639;SDS011;10479;53.524;9.846;2022-07-06T00:13:46;7.25;;;1.70;;
20639;SDS011;10479;53.524;9.846;2022-07-06T00:16:12;10.55;;;2.03;;
20639;SDS011;10479;53.524;9.846;2022-07-06T00:18:37;7.10;;;2.00;;
20639;SDS011;10479;53.524;9.846;2022-07-06T00:21:03;7.35;;;1.70;;
20639;SDS011;10479;53.524;9.846;2022-07-06T00:23:29;7.85;;;2.00;;
20639;SDS011;10479;53.524;9.846;2022-07-06T00:25:54;6.28;;;1.98;;
20639;SDS011;10479;53.524;9.846;2022-07-06T00:28:20;7.05;;;1.80;;
20639;SDS011;10479;53.524;9.846;2022-07-06T00:30:45;9.00;;;1.98;;
20639;SDS011;10479;53.524;9.846;2022-07-06T00:33:11;6.95;;;1.73;;
20639;SDS011;10479;53.524;9.846;2022-07-06T00:35:36;7.15;;;1.90;;
20639;SDS011;10479;53.524;9.846;2022-07-06T00:38:02;8.15;;;1.63;;
20639;SDS011;10479;53.524;9.846;2022-07-06T00:40:28;7.13;;;1.98;;
20639;SDS011;10479;53.524;9.846;2022-07-06T00:42:55;8.40;;;2.00;;
20639;SDS011;10479;53.524;9.846;2022-07-06T00:45:21;8.00;;;2.08;;
20639;SDS011;10479;53.524;9.846;2022-07-06T00:47:47;6.95;;;1.75;;
20639;SDS011;10479;53.524;9.846;2022-07-06T00:50:13;6.80;;;1.85;;
20639;SDS011;10479;53.524;9.846;2022-07-06T00:52:50;4.40;;;1.50;;
20639;SDS011;10479;53.524;9.846;2022-07-06T00:55:18;9.20;;;1.80;;
20639;SDS011;10479;53.524;9.846;2022-07-06T00:57:45;7.75;;;1.80;;
20639;SDS011;10479;53.524;9.846;2022-07-06T01:00:11;6.45;;;1.83;;
20639;SDS011;10479;53.524;9.846;2022-07-06T01:02:38;7.43;;;1.88;;
20639;SDS011;10479;53.524;9.846;2022-07-06T01:05:04;5.30;;;1.70;;
20639;SDS011;10479;53.524;9.846;2022-07-06T01:07:30;5.07;;;1.92;;
20639;SDS011;10479;53.524;9.846;2022-07-06T01:09:56;8.48;;;1.90;;
20639;SDS011;10479;53.524;9.846;2022-07-06T01:12:23;11.35;;;2.20;;
20639;SDS011;10479;53.524;9.846;2022-07-06T01:14:49;6.97;;;1.98;;
20639;SDS011;10479;53.524;9.846;2022-07-06T01:17:15;7.57;;;1.80;;
20639;SDS011;10479;53.524;9.846;2022-07-06T01:19:41;12.15;;;2.10;;
20639;SDS011;10479;53.524;9.846;2022-07-06T01:22:06;6.65;;;2.03;;
20639;SDS011;10479;53.524;9.846;2022-07-06T01:24:34;8.10;;;1.83;;
20639;SDS011;10479;53.524;9.846;2022-07-06T01:27:00;7.97;;;1.90;;
20639;SDS011;10479;53.524;9.846;2022-07-06T01:29:26;7.03;;;1.67;;
20639;SDS011;10479;53.524;9.846;2022-07-06T01:31:53;5.20;;;1.65;;
20639;SDS011;10479;53.524;9.846;2022-07-06T01:34:19;8.75;;;1.90;;
20639;SDS011;10479;53.524;9.846;2022-07-06T01:36:44;6.32;;;1.65;;
20639;SDS011;10479;53.524;9.846;2022-07-06T01:39:11;9.57;;;1.80;;
20639;SDS011;10479;53.524;9.846;2022-07-06T01:41:36;12.73;;;2.20;;
20639;SDS011;10479;53.524;9.846;2022-07-06T01:44:03;13.07;;;2.10;;
20639;SDS011;10479;53.524;9.846;2022-07-06T01:46:29;7.47;;;1.60;;
20639;SDS011;10479;53.524;9.846;2022-07-06T01:48:54;6.22;;;2.10;;
20639;SDS011;10479;53.524;9.846;2022-07-06T01:51:20;9.55;;;2.10;;
20639;SDS011;10479;53.524;9.846;2022-07-06T01:53:45;11.18;;;2.10;;
20639;SDS011;10479;53.524;9.846;2022-07-06T01:56:11;9.93;;;2.20;;
20639;SDS011;10479;53.524;9.846;2022-07-06T01:58:37;9.90;;;2.20;;
20639;SDS011;10479;53.524;9.846;2022-07-06T02:01:07;8.82;;;2.00;;
20639;SDS011;10479;53.524;9.846;2022-07-06T02:03:36;5.93;;;1.92;;
20639;SDS011;10479;53.524;9.846;2022-07-06T02:06:02;10.80;;;2.97;;
20639;SDS011;10479;53.524;9.846;2022-07-06T02:08:28;7.53;;;1.98;;
20639;SDS011;10479;53.524;9.846;2022-07-06T02:10:54;9.38;;;2.22;;
20639;SDS011;10479;53.524;9.846;2022-07-06T02:13:20;6.75;;;2.28;;
20639;SDS011;10479;53.524;9.846;2022-07-06T02:15:46;7.00;;;2.47;;
20639;SDS011;10479;53.524;9.846;2022-07-06T02:18:12;10.43;;;2.58;;
20639;SDS011;10479;53.524;9.846;2022-07-06T02:20:37;11.35;;;2.42;;
20639;SDS011;10479;53.524;9.846;2022-07-06T02:23:03;9.85;;;2.10;;
20639;SDS011;10479;53.524;9.846;2022-07-06T02:25:28;10.65;;;2.10;;
20639;SDS011;10479;53.524;9.846;2022-07-06T02:27:54;7.00;;;2.15;;
20639;SDS011;10479;53.524;9.846;2022-07-06T02:30:20;6.80;;;1.83;;
20639;SDS011;10479;53.524;9.846;2022-07-06T02:32:45;8.52;;;2.33;;
20639;SDS011;10479;53.524;9.846;2022-07-06T02:35:11;8.55;;;2.33;;
20639;SDS011;10479;53.524;9.846;2022-07-06T02:37:36;7.55;;;2.40;;
20639;SDS011;10479;53.524;9.846;2022-07-06T02:40:02;6.72;;;2.10;;
20639;SDS011;10479;53.524;9.846;2022-07-06T02:42:28;9.18;;;2.20;;
20639;SDS011;10479;53.524;9.846;2022-07-06T02:44:53;9.27;;;2.53;;
20639;SDS011;10479;53.524;9.846;2022-07-06T02:47:19;9.48;;;1.90;;
20639;SDS011;10479;53.524;9.846;2022-07-06T02:49:44;10.70;;;2.78;;
20639;SDS011;10479;53.524;9.846;2022-07-06T02:52:10;8.32;;;2.90;;
20639;SDS011;10479;53.524;9.846;2022-07-06T02:54:35;6.65;;;2.00;;
20639;SDS011;10479;53.524;9.846;2022-07-06T02:57:00;7.18;;;2.40;;
20639;SDS011;10479;53.524;9.846;2022-07-06T02:59:26;9.85;;;2.28;;
20639;SDS011;10479;53.524;9.846;2022-07-06T03:01:52;6.20;;;2.30;;
20639;SDS011;10479;53.524;9.846;2022-07-06T03:04:17;10.68;;;2.70;;
20639;SDS011;10479;53.524;9.846;2022-07-06T03:06:43;5.57;;;2.25;;
20639;SDS011;10479;53.524;9.846;2022-07-06T03:09:08;10.60;;;2.58;;
20639;SDS011;10479;53.524;9.846;2022-07-06T03:11:34;11.27;;;2.70;;
20639;SDS011;10479;53.524;9.846;2022-07-06T03:14:04;7.78;;;2.33;;
20639;SDS011;10479;53.524;9.846;2022-07-06T03:16:29;9.32;;;2.60;;
20639;SDS011;10479;53.524;9.846;2022-07-06T03:18:55;8.27;;;2.50;;
20639;SDS011;10479;53.524;9.846;2022-07-06T03:21:21;8.65;;;2.33;;
20639;SDS011;10479;53.524;9.846;2022-07-06T03:23:46;8.55;;;2.55;;
20639;SDS011;10479;53.524;9.846;2022-07-06T03:26:12;5.82;;;2.20;;
20639;SDS011;10479;53.524;9.846;2022-07-06T03:28:37;7.53;;;2.53;;
20639;SDS011;10479;53.524;9.846;2022-07-06T03:31:03;5.90;;;2.20;;
20639;SDS011;10479;53.524;9.846;2022-07-06T03:33:28;6.88;;;2.40;;
20639;SDS011;10479;53.524;9.846;2022-07-06T03:35:53;7.38;;;2.10;;
20639;SDS011;10479;53.524;9.846;2022-07-06T03:38:19;5.53;;;2.17;;
20639;SDS011;10479;53.524;9.846;2022-07-06T03:40:44;9.25;;;2.35;;
20639;SDS011;10479;53.524;9.846;2022-07-06T03:43:10;6.32;;;2.20;;
20639;SDS011;10479;53.524;9.846;2022-07-06T03:45:35;10.50;;;2.30;;
20639;SDS011;10479;53.524;9.846;2022-07-06T03:48:01;8.30;;;2.00;;
20639;SDS011;10479;53.524;9.846;2022-07-06T03:50:26;10.13;;;2.00;;
20639;SDS011;10479;53.524;9.846;2022-07-06T03:52:52;10.63;;;2.30;;
20639;SDS011;10479;53.524;9.846;2022-07-06T03:55:17;14.73;;;3.28;;
20639;SDS011;10479;53.524;9.846;2022-07-06T03:57:43;7.20;;;1.98;;
20639;SDS011;10479;53.524;9.846;2022-07-06T04:00:08;6.97;;;2.35;;
20639;SDS011;10479;53.524;9.846;2022-07-06T04:02:36;8.70;;;2.25;;
20639;SDS011;10479;53.524;9.846;2022-07-06T04:05:02;10.77;;;2.50;;
20639;SDS011;10479;53.524;9.846;2022-07-06T04:07:28;8.20;;;2.25;;
20639;SDS011;10479;53.524;9.846;2022-07-06T04:09:54;7.40;;;2.33;;
20639;SDS011;10479;53.524;9.846;2022-07-06T04:12:19;7.90;;;2.42;;
20639;SDS011;10479;53.524;9.846;2022-07-06T04:14:45;10.15;;;2.55;;
20639;SDS011;10479;53.524;9.846;2022-07-06T04:17:10;11.02;;;2.53;;
20639;SDS011;10479;53.524;9.846;2022-07-06T04:19:54;8.85;;;2.10;;
20639;SDS011;10479;53.524;9.846;2022-07-06T04:22:20;6.18;;;1.80;;
20639;SDS011;10479;53.524;9.846;2022-07-06T04:24:45;9.90;;;2.17;;
20639;SDS011;10479;53.524;9.846;2022-07-06T04:27:11;12.25;;;2.08;;
20639;SDS011;10479;53.524;9.846;2022-07-06T04:29:36;10.73;;;2.00;;
20639;SDS011;10479;53.524;9.846;2022-07-06T04:32:02;11.90;;;2.38;;
20639;SDS011;10479;53.524;9.846;2022-07-06T04:34:28;10.32;;;2.03;;
20639;SDS011;10479;53.524;9.846;2022-07-06T04:36:53;9.15;;;2.00;;
20639;SDS011;10479;53.524;9.846;2022-07-06T04:39:19;9.60;;;2.10;;
20639;SDS011;10479;53.524;9.846;2022-07-06T04:41:44;11.40;;;2.00;;
20639;SDS011;10479;53.524;9.846;2022-07-06T04:44:10;9.43;;;2.08;;
20639;SDS011;10479;53.524;9.846;2022-07-06T04:46:35;12.30;;;2.28;;
20639;SDS011;10479;53.524;9.846;2022-07-06T04:49:01;13.18;;;2.70;;
20639;SDS011;10479;53.524;9.846;2022-07-06T04:51:26;7.60;;;1.60;;
20639;SDS011;10479;53.524;9.846;2022-07-06T04:53:52;5.97;;;2.00;;
20639;SDS011;10479;53.524;9.846;2022-07-06T04:56:17;9.60;;;1.73;;
20639;SDS011;10479;53.524;9.846;2022-07-06T04:58:43;11.75;;;2.55;;
20639;SDS011;10479;53.524;9.846;2022-07-06T05:01:08;7.03;;;1.60;;
20639;SDS011;10479;53.524;9.846;2022-07-06T05:03:34;8.20;;;1.80;;
20639;SDS011;10479;53.524;9.846;2022-07-06T05:06:04;4.22;;;1.40;;
20639;SDS011;10479;53.524;9.846;2022-07-06T05:08:30;7.20;;;2.03;;
20639;SDS011;10479;53.524;9.846;2022-07-06T05:10:55;9.10;;;1.95;;
20639;SDS011;10479;53.524;9.846;2022-07-06T05:13:21;9.30;;;1.80;;
20639;SDS011;10479;53.524;9.846;2022-07-06T05:15:46;6.82;;;1.80;;
20639;SDS011;10479;53.524;9.846;2022-07-06T05:18:12;8.68;;;1.70;;
20639;SDS011;10479;53.524;9.846;2022-07-06T05:20:38;7.70;;;1.70;;
20639;SDS011;10479;53.524;9.846;2022-07-06T05:23:03;7.60;;;1.60;;
20639;SDS011;10479;53.524;9.846;2022-07-06T05:25:28;8.02;;;1.50;;
20639;SDS011;10479;53.524;9.846;2022-07-06T05:27:55;6.65;;;1.80;;
20639;SDS011;10479;53.524;9.846;2022-07-06T05:30:20;5.18;;;1.23;;
20639;SDS011;10479;53.524;9.846;2022-07-06T05:32:46;6.72;;;1.40;;
20639;SDS011;10479;53.524;9.846;2022-07-06T05:35:12;5.03;;;1.50;;
20639;SDS011;10479;53.524;9.846;2022-07-06T05:37:37;9.18;;;1.63;;
20639;SDS011;10479;53.524;9.846;2022-07-06T05:40:04;6.05;;;1.30;;
20639;SDS011;10479;53.524;9.846;2022-07-06T05:42:30;4.63;;;1.55;;
20639;SDS011;10479;53.524;9.846;2022-07-06T05:44:56;8.40;;;1.75;;
20639;SDS011;10479;53.524;9.846;2022-07-06T05:47:22;10.30;;;1.58;;
20639;SDS011;10479;53.524;9.846;2022-07-06T05:50:06;12.32;;;1.63;;
20639;SDS011;10479;53.524;9.846;2022-07-06T05:52:39;6.15;;;1.50;;
20639;SDS011;10479;53.524;9.846;2022-07-06T05:55:05;6.68;;;1.25;;
20639;SDS011;10479;53.524;9.846;2022-07-06T05:57:31;5.93;;;1.27;;
20639;SDS011;10479;53.524;9.846;2022-07-06T05:59:57;10.95;;;1.23;;
20639;SDS011;10479;53.524;9.846;2022-07-06T06:02:22;7.28;;;1.05;;
20639;SDS011;10479;53.524;9.846;2022-07-06T06:04:48;6.78;;;1.40;;
20639;SDS011;10479;53.524;9.846;2022-07-06T06:07:13;5.30;;;1.10;;
20639;SDS011;10479;53.524;9.846;2022-07-06T06:09:39;7.75;;;1.60;;
20639;SDS011;10479;53.524;9.846;2022-07-06T06:12:04;9.15;;;1.42;;
20639;SDS011;10479;53.524;9.846;2022-07-06T06:14:30;5.45;;;1.00;;
20639;SDS011;10479;53.524;9.846;2022-07-06T06:16:55;4.90;;;1.20;;
20639;SDS011;10479;53.524;9.846;2022-07-06T06:19:21;6.18;;;1.35;;
20639;SDS011;10479;53.524;9.846;2022-07-06T06:21:46;5.72;;;1.05;;
20639;SDS011;10479;53.524;9.846;2022-07-06T06:24:11;7.43;;;1.20;;
20639;SDS011;10479;53.524;9.846;2022-07-06T06:26:37;5.35;;;1.00;;
20639;SDS011;10479;53.524;9.846;2022-07-06T06:29:02;12.52;;;1.38;;
20639;SDS011;10479;53.524;9.846;2022-07-06T06:31:28;5.90;;;1.00;;
20639;SDS011;10479;53.524;9.846;2022-07-06T06:33:53;5.95;;;0.95;;
20639;SDS011;10479;53.524;9.846;2022-07-06T06:36:18;7.80;;;1.30;;
20639;SDS011;10479;53.524;9.846;2022-07-06T06:38:44;9.23;;;1.10;;
20639;SDS011;10479;53.524;9.846;2022-07-06T06:41:10;5.63;;;1.25;;
20639;SDS011;10479;53.524;9.846;2022-07-06T06:43:35;6.10;;;1.10;;
20639;SDS011;10479;53.524;9.846;2022-07-06T06:46:01;6.82;;;1.10;;
20639;SDS011;10479;53.524;9.846;2022-07-06T06:48:26;6.40;;;1.00;;
20639;SDS011;10479;53.524;9.846;2022-07-06T06:50:52;4.65;;;0.68;;
20639;SDS011;10479;53.524;9.846;2022-07-06T06:53:17;3.75;;;0.73;;
20639;SDS011;10479;53.524;9.846;2022-07-06T06:55:43;5.10;;;1.27;;
20639;SDS011;10479;53.524;9.846;2022-07-06T06:58:08;6.03;;;1.02;;
20639;SDS011;10479;53.524;9.846;2022-07-06T07:00:33;5.93;;;1.33;;
20639;SDS011;10479;53.524;9.846;2022-07-06T07:02:59;6.90;;;1.33;;
20639;SDS011;10479;53.524;9.846;2022-07-06T07:05:24;4.38;;;1.83;;
20639;SDS011;10479;53.524;9.846;2022-07-06T07:07:50;7.47;;;1.10;;
20639;SDS011;10479;53.524;9.846;2022-07-06T07:10:16;4.88;;;1.20;;
20639;SDS011;10479;53.524;9.846;2022-07-06T07:12:42;3.72;;;0.90;;
20639;SDS011;10479;53.524;9.846;2022-07-06T07:15:11;7.85;;;1.23;;
20639;SDS011;10479;53.524;9.846;2022-07-06T07:17:36;6.25;;;1.25;;
20639;SDS011;10479;53.524;9.846;2022-07-06T07:20:03;4.78;;;1.00;;
20639;SDS011;10479;53.524;9.846;2022-07-06T07:22:29;4.45;;;0.88;;
20639;SDS011;10479;53.524;9.846;2022-07-06T07:24:54;8.05;;;0.93;;
20639;SDS011;10479;53.524;9.846;2022-07-06T07:27:20;5.97;;;0.77;;
20639;SDS011;10479;53.524;9.846;2022-07-06T07:29:45;4.28;;;0.70;;
20639;SDS011;10479;53.524;9.846;2022-07-06T07:32:10;4.40;;;0.90;;
20639;SDS011;10479;53.524;9.846;2022-07-06T07:34:36;4.60;;;0.93;;
20639;SDS011;10479;53.524;9.846;2022-07-06T07:37:02;2.47;;;0.60;;
20639;SDS011;10479;53.524;9.846;2022-07-06T07:39:28;7.22;;;0.90;;
20639;SDS011;10479;53.524;9.846;2022-07-06T07:41:53;4.82;;;1.00;;
20639;SDS011;10479;53.524;9.846;2022-07-06T07:44:19;4.10;;;0.80;;
20639;SDS011;10479;53.524;9.846;2022-07-06T07:46:44;6.63;;;0.95;;
20639;SDS011;10479;53.524;9.846;2022-07-06T07:49:09;6.80;;;1.10;;
20639;SDS011;10479;53.524;9.846;2022-07-06T07:51:35;7.28;;;0.98;;
20639;SDS011;10479;53.524;9.846;2022-07-06T07:54:01;5.80;;;0.88;;
20639;SDS011;10479;53.524;9.846;2022-07-06T07:56:27;4.50;;;1.08;;
20639;SDS011;10479;53.524;9.846;2022-07-06T07:58:52;4.75;;;1.17;;
20639;SDS011;10479;53.524;9.846;2022-07-06T08:01:18;3.60;;;0.93;;
20639;SDS011;10479;53.524;9.846;2022-07-06T08:03:43;5.03;;;1.30;;
20639;SDS011;10479;53.524;9.846;2022-07-06T08:06:09;6.15;;;0.98;;
20639;SDS011;10479;53.524;9.846;2022-07-06T08:08:35;8.05;;;1.50;;
20639;SDS011;10479;53.524;9.846;2022-07-06T08:11:00;5.32;;;0.93;;
20639;SDS011;10479;53.524;9.846;2022-07-06T08:13:26;6.50;;;0.98;;
20639;SDS011;10479;53.524;9.846;2022-07-06T08:15:51;4.95;;;1.17;;
20639;SDS011;10479;53.524;9.846;2022-07-06T08:18:17;7.25;;;1.45;;
20639;SDS011;10479;53.524;9.846;2022-07-06T08:20:42;16.40;;;1.98;;
20639;SDS011;10479;53.524;9.846;2022-07-06T08:23:07;5.70;;;1.35;;
20639;SDS011;10479;53.524;9.846;2022-07-06T08:25:33;5.00;;;1.67;;
20639;SDS011;10479;53.524;9.846;2022-07-06T08:27:59;7.65;;;1.70;;
20639;SDS011;10479;53.524;9.846;2022-07-06T08:30:26;7.68;;;2.17;;
20639;SDS011;10479;53.524;9.846;2022-07-06T08:32:52;9.95;;;1.85;;
20639;SDS011;10479;53.524;9.846;2022-07-06T08:35:17;10.82;;;2.50;;
20639;SDS011;10479;53.524;9.846;2022-07-06T08:37:43;7.65;;;1.73;;
20639;SDS011;10479;53.524;9.846;2022-07-06T08:40:09;5.47;;;1.77;;
20639;SDS011;10479;53.524;9.846;2022-07-06T08:42:35;4.18;;;1.20;;
20639;SDS011;10479;53.524;9.846;2022-07-06T08:45:05;5.07;;;1.55;;
20639;SDS011;10479;53.524;9.846;2022-07-06T08:47:31;5.05;;;1.30;;
20639;SDS011;10479;53.524;9.846;2022-07-06T08:49:57;2.47;;;1.17;;
20639;SDS011;10479;53.524;9.846;2022-07-06T09:06:02;5.85;;;1.30;;
20639;SDS011;10479;53.524;9.846;2022-07-06T09:08:28;6.60;;;1.10;;
20639;SDS011;10479;53.524;9.846;2022-07-06T09:10:55;5.88;;;1.05;;
20639;SDS011;10479;53.524;9.846;2022-07-06T09:13:21;3.28;;;1.10;;
20639;SDS011;10479;53.524;9.846;2022-07-06T09:15:47;3.70;;;1.00;;
20639;SDS011;10479;53.524;9.846;2022-07-06T09:18:12;6.82;;;1.10;;
20639;SDS011;10479;53.524;9.846;2022-07-06T09:43:57;4.80;;;1.00;;
20639;SDS011;10479;53.524;9.846;2022-07-06T09:46:22;3.97;;;0.85;;
20639;SDS011;10479;53.524;9.846;2022-07-06T09:48:48;7.53;;;1.65;;
20639;SDS011;10479;53.524;9.846;2022-07-06T09:51:13;3.08;;;0.82;;
20639;SDS011;10479;53.524;9.846;2022-07-06T09:53:40;3.80;;;0.93;;
20639;SDS011;10479;53.524;9.846;2022-07-06T09:56:07;3.00;;;0.70;;
20639;SDS011;10479;53.524;9.846;2022-07-06T09:58:34;4.30;;;0.82;;
20639;SDS011;10479;53.524;9.846;2022-07-06T10:01:03;5.20;;;0.82;;
20639;SDS011;10479;53.524;9.846;2022-07-06T10:03:28;6.03;;;0.98;;
20639;SDS011;10479;53.524;9.846;2022-07-06T10:05:55;6.38;;;0.82;;
20639;SDS011;10479;53.524;9.846;2022-07-06T10:08:20;5.13;;;0.85;;
20639;SDS011;10479;53.524;9.846;2022-07-06T10:10:46;4.35;;;0.90;;
20639;SDS011;10479;53.524;9.846;2022-07-06T10:13:13;4.38;;;0.95;;
20639;SDS011;10479;53.524;9.846;2022-07-06T10:15:39;2.63;;;0.65;;
20639;SDS011;10479;53.524;9.846;2022-07-06T10:18:06;4.65;;;0.70;;
20639;SDS011;10479;53.524;9.846;2022-07-06T10:20:34;4.75;;;0.63;;
20639;SDS011;10479;53.524;9.846;2022-07-06T10:23:05;6.60;;;0.80;;
20639;SDS011;10479;53.524;9.846;2022-07-06T10:25:32;3.25;;;0.70;;
20639;SDS011;10479;53.524;9.846;2022-07-06T10:27:58;3.03;;;0.50;;
20639;SDS011;10479;53.524;9.846;2022-07-06T10:30:24;4.20;;;0.68;;
20639;SDS011;10479;53.524;9.846;2022-07-06T10:32:50;3.65;;;0.60;;
20639;SDS011;10479;53.524;9.846;2022-07-06T10:35:19;4.60;;;0.80;;
20639;SDS011;10479;53.524;9.846;2022-07-06T10:37:45;5.93;;;0.70;;
20639;SDS011;10479;53.524;9.846;2022-07-06T10:40:14;4.13;;;0.77;;
20639;SDS011;10479;53.524;9.846;2022-07-06T10:42:59;4.60;;;0.80;;
20639;SDS011;10479;53.524;9.846;2022-07-06T10:50:35;2.38;;;0.68;;
20639;SDS011;10479;53.524;9.846;2022-07-06T10:53:01;4.85;;;1.20;;
20639;SDS011;10479;53.524;9.846;2022-07-06T10:55:34;2.97;;;0.77;;
20639;SDS011;10479;53.524;9.846;2022-07-06T10:58:01;4.50;;;1.30;;
20639;SDS011;10479;53.524;9.846;2022-07-06T11:01:01;4.45;;;0.80;;
20639;SDS011;10479;53.524;9.846;2022-07-06T11:06:01;7.30;;;1.20;;
20639;SDS011;10479;53.524;9.846;2022-07-06T11:08:44;5.30;;;0.98;;
20639;SDS011;10479;53.524;9.846;2022-07-06T11:13:51;5.22;;;1.20;;
20639;SDS011;10479;53.524;9.846;2022-07-06T11:16:22;3.88;;;0.95;;
20639;SDS011;10479;53.524;9.846;2022-07-06T11:19:10;4.72;;;0.60;;
20639;SDS011;10479;53.524;9.846;2022-07-06T11:24:19;5.90;;;1.25;;
20639;SDS011;10479;53.524;9.846;2022-07-06T11:26:49;6.50;;;0.98;;
20639;SDS011;10479;53.524;9.846;2022-07-06T11:29:17;1.65;;;0.50;;
20639;SDS011;10479;53.524;9.846;2022-07-06T11:31:46;7.05;;;0.52;;
20639;SDS011;10479;53.524;9.846;2022-07-06T11:34:13;3.85;;;0.70;;
20639;SDS011;10479;53.524;9.846;2022-07-06T11:36:42;7.22;;;0.73;;
20639;SDS011;10479;53.524;9.846;2022-07-06T11:39:08;5.32;;;0.95;;
20639;SDS011;10479;53.524;9.846;2022-07-06T11:41:34;3.10;;;0.60;;
20639;SDS011;10479;53.524;9.846;2022-07-06T11:44:01;5.22;;;0.60;;
20639;SDS011;10479;53.524;9.846;2022-07-06T11:46:28;5.25;;;0.50;;
20639;SDS011;10479;53.524;9.846;2022-07-06T11:48:58;5.15;;;0.52;;
20639;SDS011;10479;53.524;9.846;2022-07-06T11:51:25;1.65;;;0.32;;
20639;SDS011;10479;53.524;9.846;2022-07-06T11:53:55;4.18;;;0.68;;
20639;SDS011;10479;53.524;9.846;2022-07-06T11:56:22;4.55;;;0.60;;
20639;SDS011;10479;53.524;9.846;2022-07-06T11:58:51;5.18;;;0.77;;
20639;SDS011;10479;53.524;9.846;2022-07-06T12:01:18;4.10;;;0.57;;
20639;SDS011;10479;53.524;9.846;2022-07-06T12:03:44;4.47;;;0.60;;
20639;SDS011;10479;53.524;9.846;2022-07-06T12:06:14;6.25;;;0.90;;
20639;SDS011;10479;53.524;9.846;2022-07-06T12:08:40;7.82;;;0.68;;
20639;SDS011;10479;53.524;9.846;2022-07-06T12:11:06;5.80;;;0.73;;
20639;SDS011;10479;53.524;9.846;2022-07-06T12:13:35;4.18;;;0.50;;
20639;SDS011;10479;53.524;9.846;2022-07-06T12:16:11;2.47;;;0.50;;
20639;SDS011;10479;53.524;9.846;2022-07-06T12:18:38;7.15;;;0.70;;
20639;SDS011;10479;53.524;9.846;2022-07-06T12:21:06;4.43;;;0.65;;
20639;SDS011;10479;53.524;9.846;2022-07-06T12:23:39;3.95;;;0.50;;
20639;SDS011;10479;53.524;9.846;2022-07-06T12:26:05;4.07;;;0.50;;
20639;SDS011;10479;53.524;9.846;2022-07-06T12:28:31;5.72;;;0.88;;
20639;SDS011;10479;53.524;9.846;2022-07-06T12:30:56;3.08;;;0.63;;
20639;SDS011;10479;53.524;9.846;2022-07-06T12:33:22;2.70;;;0.50;;
20639;SDS011;10479;53.524;9.846;2022-07-06T12:35:48;7.25;;;1.02;;
20639;SDS011;10479;53.524;9.846;2022-07-06T12:38:21;3.15;;;0.60;;
20639;SDS011;10479;53.524;9.846;2022-07-06T12:40:54;3.78;;;0.50;;
20639;SDS011;10479;53.524;9.846;2022-07-06T12:43:36;3.17;;;0.65;;
20639;SDS011;10479;53.524;9.846;2022-07-06T12:48:53;9.70;;;1.17;;
20639;SDS011;10479;53.524;9.846;2022-07-06T12:51:19;4.68;;;0.75;;
20639;SDS011;10479;53.524;9.846;2022-07-06T12:53:45;2.75;;;0.80;;
20639;SDS011;10479;53.524;9.846;2022-07-06T12:56:11;9.13;;;1.20;;
20639;SDS011;10479;53.524;9.846;2022-07-06T12:58:37;5.68;;;0.73;;
20639;SDS011;10479;53.524;9.846;2022-07-06T13:01:02;1.98;;;0.43;;
20639;SDS011;10479;53.524;9.846;2022-07-06T13:03:28;3.45;;;0.57;;
20639;SDS011;10479;53.524;9.846;2022-07-06T13:06:04;5.13;;;0.50;;
20639;SDS011;10479;53.524;9.846;2022-07-06T13:08:30;1.77;;;0.30;;
20639;SDS011;10479;53.524;9.846;2022-07-06T13:10:55;3.17;;;0.60;;
20639;SDS011;10479;53.524;9.846;2022-07-06T13:13:20;2.30;;;0.40;;
20639;SDS011;10479;53.524;9.846;2022-07-06T13:15:47;3.85;;;0.47;;
20639;SDS011;10479;53.524;9.846;2022-07-06T13:18:13;4.20;;;0.50;;
20639;SDS011;10479;53.524;9.846;2022-07-06T13:20:38;2.47;;;0.35;;
20639;SDS011;10479;53.524;9.846;2022-07-06T13:23:04;3.95;;;0.32;;
20639;SDS011;10479;53.524;9.846;2022-07-06T13:25:29;3.45;;;0.30;;
20639;SDS011;10479;53.524;9.846;2022-07-06T13:27:55;3.20;;;0.43;;
20639;SDS011;10479;53.524;9.846;2022-07-06T13:30:20;2.25;;;0.30;;
20639;SDS011;10479;53.524;9.846;2022-07-06T13:32:45;3.78;;;0.35;;
20639;SDS011;10479;53.524;9.846;2022-07-06T13:35:12;2.80;;;0.30;;
20639;SDS011;10479;53.524;9.846;2022-07-06T13:37:37;2.88;;;0.47;;
20639;SDS011;10479;53.524;9.846;2022-07-06T13:40:03;2.85;;;0.50;;
20639;SDS011;10479;53.524;9.846;2022-07-06T13:42:30;4.45;;;0.50;;
20639;SDS011;10479;53.524;9.846;2022-07-06T13:44:56;2.72;;;0.30;;
20639;SDS011;10479;53.524;9.846;2022-07-06T13:47:21;4.32;;;0.40;;
20639;SDS011;10479;53.524;9.846;2022-07-06T13:49:47;2.60;;;0.38;;
20639;SDS011;10479;53.524;9.846;2022-07-06T13:52:12;2.90;;;0.65;;
20639;SDS011;10479;53.524;9.846;2022-07-06T13:54:38;5.07;;;0.43;;
20639;SDS011;10479;53.524;9.846;2022-07-06T13:57:04;4.15;;;0.60;;
20639;SDS011;10479;53.524;9.846;2022-07-06T13:59:30;6.15;;;0.73;;
20639;SDS011;10479;53.524;9.846;2022-07-06T14:01:56;3.25;;;0.50;;
20639;SDS011;10479;53.524;9.846;2022-07-06T14:04:22;3.08;;;0.45;;
20639;SDS011;10479;53.524;9.846;2022-07-06T14:06:47;2.35;;;0.60;;
20639;SDS011;10479;53.524;9.846;2022-07-06T14:09:13;3.92;;;0.40;;
20639;SDS011;10479;53.524;9.846;2022-07-06T14:11:38;1.77;;;0.40;;
20639;SDS011;10479;53.524;9.846;2022-07-06T14:14:04;6.45;;;0.63;;
20639;SDS011;10479;53.524;9.846;2022-07-06T14:16:32;2.65;;;0.68;;
20639;SDS011;10479;53.524;9.846;2022-07-06T14:18:59;2.47;;;0.40;;
20639;SDS011;10479;53.524;9.846;2022-07-06T14:21:25;3.20;;;0.60;;
20639;SDS011;10479;53.524;9.846;2022-07-06T14:23:51;2.13;;;0.47;;
20639;SDS011;10479;53.524;9.846;2022-07-06T14:26:16;5.40;;;0.60;;
20639;SDS011;10479;53.524;9.846;2022-07-06T14:28:42;1.42;;;0.20;;
20639;SDS011;10479;53.524;9.846;2022-07-06T14:31:08;4.53;;;0.43;;
20639;SDS011;10479;53.524;9.846;2022-07-06T14:33:33;2.70;;;0.35;;
20639;SDS011;10479;53.524;9.846;2022-07-06T14:35:59;4.65;;;0.50;;
20639;SDS011;10479;53.524;9.846;2022-07-06T14:38:25;1.92;;;0.40;;
20639;SDS011;10479;53.524;9.846;2022-07-06T14:40:52;4.18;;;0.43;;
20639;SDS011;10479;53.524;9.846;2022-07-06T14:43:18;3.63;;;0.47;;
20639;SDS011;10479;53.524;9.846;2022-07-06T14:45:44;3.63;;;0.60;;
20639;SDS011;10479;53.524;9.846;2022-07-06T14:48:10;5.57;;;0.70;;
20639;SDS011;10479;53.524;9.846;2022-07-06T14:50:35;3.45;;;0.50;;
20639;SDS011;10479;53.524;9.846;2022-07-06T14:53:01;2.28;;;0.60;;
20639;SDS011;10479;53.524;9.846;2022-07-06T14:55:27;2.75;;;0.50;;
20639;SDS011;10479;53.524;9.846;2022-07-06T14:57:52;1.08;;;0.30;;
20639;SDS011;10479;53.524;9.846;2022-07-06T15:00:20;4.97;;;0.60;;
20639;SDS011;10479;53.524;9.846;2022-07-06T15:02:46;3.33;;;0.65;;
20639;SDS011;10479;53.524;9.846;2022-07-06T15:05:11;5.03;;;0.60;;
20639;SDS011;10479;53.524;9.846;2022-07-06T15:07:37;3.03;;;0.40;;
20639;SDS011;10479;53.524;9.846;2022-07-06T15:10:04;3.53;;;0.50;;
20639;SDS011;10479;53.524;9.846;2022-07-06T15:12:30;5.97;;;0.82;;
20639;SDS011;10479;53.524;9.846;2022-07-06T15:14:55;3.28;;;0.52;;
20639;SDS011;10479;53.524;9.846;2022-07-06T15:17:21;2.38;;;0.50;;
20639;SDS011;10479;53.524;9.846;2022-07-06T15:19:46;3.75;;;0.45;;
20639;SDS011;10479;53.524;9.846;2022-07-06T15:22:12;2.58;;;0.40;;
20639;SDS011;10479;53.524;9.846;2022-07-06T15:24:38;2.65;;;0.55;;
20639;SDS011;10479;53.524;9.846;2022-07-06T15:27:04;2.72;;;0.70;;
20639;SDS011;10479;53.524;9.846;2022-07-06T15:29:30;3.75;;;0.50;;
20639;SDS011;10479;53.524;9.846;2022-07-06T15:31:56;6.03;;;0.70;;
20639;SDS011;10479;53.524;9.846;2022-07-06T15:34:21;3.35;;;0.65;;